Time;durP1;ratioP1;P1;durP2;ratioP2;P2;SDS_P1;SDS_P2;PMS_P1;PMS_P2;Temp;Humidity;BMP_temperature;BMP_pressure;BME280_temperature;BME280_humidity;BME280_pressure;Samples;Min_cycle;Max_cycle;Signal;HPM_P1;HPM_P2
2023/11/05 00:01:53;;;;;;;0.50;0.50;;;11.20;76.30;;;;;;5073172;28;20029;-79
2023/11/05 00:04:19;;;;;;;0.70;0.70;;;;;;;;;;5074413;28;20028;-79
2023/11/05 00:06:46;;;;;;;0.40;0.40;;;;;;;;;;5080290;28;20062;-79
2023/11/05 00:09:12;;;;;;;2.75;0.40;;;;;;;;;;5089022;28;20433;-78
2023/11/05 00:11:38;;;;;;;1.35;0.70;;;11.30;74.80;;;;;;5089024;28;20036;-80
2023/11/05 00:14:03;;;;;;;2.10;0.63;;;11.40;75.30;;;;;;5088290;28;20031;-79
2023/11/05 00:16:29;;;;;;;3.95;0.70;;;;;;;;;;5078155;28;20028;-79
2023/11/05 00:18:55;;;;;;;0.50;0.50;;;;;;;;;;5086680;28;20024;-79
2023/11/05 00:21:21;;;;;;;0.52;0.40;;;;;;;;;;5077825;28;20055;-79
2023/11/05 00:23:47;;;;;;;2.42;0.40;;;;;;;;;;5068418;28;20025;-79
2023/11/05 00:26:13;;;;;;;0.40;0.40;;;;;;;;;;5069239;28;20029;-79
2023/11/05 00:28:39;;;;;;;1.25;0.60;;;11.30;92.80;;;;;;5069174;28;21024;-79
2023/11/05 00:31:05;;;;;;;0.30;0.30;;;11.40;92.90;;;;;;5068945;28;20021;-79
2023/11/05 00:33:31;;;;;;;4.13;0.75;;;11.40;74.40;;;;;;5070030;28;20556;-78
2023/11/05 00:35:57;;;;;;;0.50;0.50;;;;;;;;;;5069526;28;20017;-78
2023/11/05 00:38:23;;;;;;;0.40;0.40;;;11.40;72.90;;;;;;5069575;28;20017;-79
2023/11/05 00:40:49;;;;;;;2.60;0.73;;;;;;;;;;5068941;28;20040;-81
2023/11/05 00:43:15;;;;;;;1.65;0.55;;;;;;;;;;5068343;28;20048;-80
2023/11/05 00:45:41;;;;;;;0.47;0.47;;;;;;;;;;5069903;28;20024;-79
2023/11/05 00:48:07;;;;;;;3.03;0.47;;;;;;;;;;5069163;28;20519;-78
2023/11/05 00:50:33;;;;;;;0.50;0.50;;;11.50;92.80;;;;;;5069176;28;20079;-78
2023/11/05 00:52:58;;;;;;;0.65;0.52;;;11.90;74.30;;;;;;5070159;28;20055;-78
2023/11/05 00:55:24;;;;;;;0.30;0.30;;;11.40;92.60;;;;;;5069514;28;20025;-79
2023/11/05 00:57:51;;;;;;;1.85;1.35;;;11.30;73.60;;;;;;5069491;28;20028;-79
2023/11/05 01:00:17;;;;;;;2.72;0.80;;;11.30;74.30;;;;;;5068634;28;20062;-79
2023/11/05 01:02:44;;;;;;;0.60;0.60;;;11.40;93.00;;;;;;5070041;28;20378;-79
2023/11/05 01:05:10;;;;;;;1.60;0.70;;;11.90;75.10;;;;;;5069172;28;20211;-78
2023/11/05 01:07:36;;;;;;;4.90;0.70;;;;;;;;;;5068463;28;20271;-80
2023/11/05 01:10:03;;;;;;;1.05;1.05;;;10.90;93.20;;;;;;5068777;28;20028;-78
2023/11/05 01:12:28;;;;;;;1.58;0.45;;;11.10;75.20;;;;;;5068078;28;20032;-78
2023/11/05 01:14:55;;;;;;;0.30;0.30;;;10.90;93.40;;;;;;5068473;28;20317;-79
2023/11/05 01:17:21;;;;;;;0.40;0.40;;;;;;;;;;5067730;28;20092;-79
2023/11/05 01:19:47;;;;;;;0.20;0.20;;;11.10;93.50;;;;;;5068205;28;20028;-79
2023/11/05 01:22:12;;;;;;;4.65;0.68;;;13.20;76.80;;;;;;5081268;28;20074;-78
2023/11/05 01:24:39;;;;;;;0.30;0.30;;;;;;;;;;5068476;28;20035;-80
2023/11/05 01:27:05;;;;;;;0.47;0.47;;;;;;;;;;5080787;28;20032;-78
2023/11/05 01:29:31;;;;;;;3.10;0.30;;;11.30;75.70;;;;;;5088654;28;20036;-79
2023/11/05 01:31:57;;;;;;;4.05;0.52;;;11.20;93.70;;;;;;5082875;28;20433;-79
2023/11/05 01:34:23;;;;;;;0.40;0.40;;;11.50;94.10;;;;;;5068241;28;20144;-79
2023/11/05 01:36:48;;;;;;;0.60;0.60;;;11.20;76.90;;;;;;5070830;28;20031;-79
2023/11/05 01:39:14;;;;;;;3.80;0.50;;;11.20;91.30;;;;;;5071755;28;20036;-78
2023/11/05 01:41:40;;;;;;;1.05;0.50;;;11.30;94.00;;;;;;5072147;28;20024;-79
2023/11/05 01:44:05;;;;;;;1.67;0.50;;;11.40;92.00;;;;;;5070861;28;20048;-79
2023/11/05 01:46:31;;;;;;;0.75;0.55;;;11.40;93.80;;;;;;5085922;28;20055;-78
2023/11/05 01:48:58;;;;;;;3.35;0.55;;;11.60;93.90;;;;;;5072352;28;20025;-79
2023/11/05 01:51:24;;;;;;;1.13;0.60;;;11.40;94.20;;;;;;5074307;28;20025;-78
2023/11/05 01:53:54;;;;;;;3.05;0.63;;;11.20;94.30;;;;;;5071494;28;20082;-79
2023/11/05 01:56:21;;;;;;;0.45;0.43;;;11.10;77.60;;;;;;5072556;28;20029;-79
2023/11/05 01:58:52;;;;;;;2.20;0.43;;;11.10;94.30;;;;;;5072086;28;20032;-80
2023/11/05 02:01:18;;;;;;;0.30;0.30;;;11.70;78.30;;;;;;5072176;28;20052;-79
2023/11/05 02:03:44;;;;;;;0.85;0.85;;;13.70;79.00;;;;;;5072217;28;20111;-79
2023/11/05 02:06:10;;;;;;;0.63;0.50;;;11.20;78.20;;;;;;5076175;28;20020;-79
2023/11/05 02:08:38;;;;;;;0.50;0.50;;;11.20;78.10;;;;;;5091746;28;20141;-79
2023/11/05 02:11:04;;;;;;;3.85;0.65;;;11.10;94.70;;;;;;5090742;28;20059;-79
2023/11/05 02:13:46;;;;;;;1.00;0.50;;;11.20;78.40;;;;;;5091272;28;20493;-79
2023/11/05 02:16:13;;;;;;;1.65;0.40;;;11.10;94.80;;;;;;5090672;28;20035;-79
2023/11/05 02:18:38;;;;;;;0.45;0.35;;;11.10;78.90;;;;;;5090167;28;20024;-79
2023/11/05 02:21:05;;;;;;;0.40;0.40;;;11.20;95.00;;;;;;5091577;28;20039;-80
2023/11/05 02:23:34;;;;;;;1.05;0.40;;;11.20;94.90;;;;;;5076084;28;20039;-79
2023/11/05 02:26:00;;;;;;;2.05;0.50;;;11.10;78.90;;;;;;5071656;28;20085;-79
2023/11/05 02:28:26;;;;;;;0.32;0.32;;;11.10;94.60;;;;;;5071807;28;20514;-79
2023/11/05 02:30:54;;;;;;;1.77;1.25;;;11.20;94.60;;;;;;5071987;28;20036;-79
2023/11/05 02:33:21;;;;;;;0.32;0.32;;;;;;;;;;5071622;28;20106;-79
2023/11/05 02:35:46;;;;;;;0.30;0.30;;;11.00;77.80;;;;;;5071022;28;20081;-79
2023/11/05 02:38:12;;;;;;;0.30;0.30;;;;;;;;;;5070587;28;20508;-79
2023/11/05 02:40:38;;;;;;;0.40;0.40;;;11.10;94.50;;;;;;5071060;28;20086;-79
2023/11/05 02:43:04;;;;;;;0.55;0.55;;;;;;;;;;5070996;28;20404;-80
2023/11/05 02:45:30;;;;;;;0.30;0.30;;;;;;;;;;5071430;28;20381;-80
2023/11/05 02:47:57;;;;;;;0.40;0.40;;;;;;;;;;5069499;28;20059;-79
2023/11/05 02:50:22;;;;;;;0.45;0.43;;;11.00;78.10;;;;;;5070238;28;20453;-79
2023/11/05 02:52:48;;;;;;;0.30;0.30;;;11.00;94.80;;;;;;5071135;28;20086;-79
2023/11/05 02:55:13;;;;;;;0.30;0.30;;;11.10;94.80;;;;;;5070537;28;20063;-80
2023/11/05 02:57:39;;;;;;;0.32;0.32;;;11.10;94.60;;;;;;5070765;28;20028;-79
2023/11/05 03:00:06;;;;;;;0.63;0.30;;;11.00;94.60;;;;;;5070759;28;20020;-79
2023/11/05 03:02:33;;;;;;;0.55;0.50;;;11.10;94.60;;;;;;5069628;28;20029;-79
2023/11/05 03:04:59;;;;;;;0.30;0.30;;;11.60;78.60;;;;;;5070875;28;20025;-78
2023/11/05 03:07:25;;;;;;;1.05;0.57;;;11.10;78.60;;;;;;5086070;28;20784;-79
2023/11/05 03:09:51;;;;;;;0.85;0.85;;;10.90;94.60;;;;;;5089161;28;20028;-79
2023/11/05 03:12:17;;;;;;;0.88;0.88;;;;;;;;;;5089785;28;20016;-78
2023/11/05 03:14:43;;;;;;;0.30;0.30;;;10.90;78.30;;;;;;5089911;28;20039;-79
2023/11/05 03:17:08;;;;;;;0.40;0.40;;;10.90;94.80;;;;;;5076888;28;20029;-79
2023/11/05 03:19:34;;;;;;;0.45;0.40;;;11.00;94.80;;;;;;5072876;28;20496;-79
2023/11/05 03:21:59;;;;;;;0.30;0.30;;;11.00;78.60;;;;;;5071840;28;20073;-79
2023/11/05 03:24:25;;;;;;;0.30;0.30;;;10.80;94.70;;;;;;5084304;28;20122;-80
2023/11/05 03:26:50;;;;;;;2.05;0.40;;;10.90;94.80;;;;;;5077291;28;20476;-79
2023/11/05 03:29:17;;;;;;;0.55;0.40;;;11.10;94.30;;;;;;5089421;28;20032;-79
2023/11/05 03:31:43;;;;;;;0.30;0.30;;;11.20;94.00;;;;;;5089874;28;20049;-79
2023/11/05 03:34:09;;;;;;;0.35;0.35;;;;;;;;;;5072652;28;20035;-79
2023/11/05 03:36:34;;;;;;;0.50;0.40;;;11.30;93.80;;;;;;5069790;28;20024;-80
2023/11/05 03:39:00;;;;;;;0.30;0.30;;;11.20;93.60;;;;;;5069933;28;20020;-80
2023/11/05 03:41:26;;;;;;;0.30;0.30;;;;;;;;;;5070145;28;20032;-79
2023/11/05 03:43:52;;;;;;;0.30;0.30;;;;;;;;;;5069784;28;20055;-79
2023/11/05 03:46:18;;;;;;;1.90;0.40;;;11.40;93.60;;;;;;5079334;28;20454;-80
2023/11/05 03:48:44;;;;;;;0.30;0.30;;;;;;;;;;5073540;28;20020;-80
2023/11/05 03:51:14;;;;;;;0.40;0.40;;;11.30;93.30;;;;;;5070484;28;20024;-79
2023/11/05 03:53:39;;;;;;;0.45;0.40;;;11.60;93.20;;;;;;5070039;28;20051;-79
2023/11/05 03:56:05;;;;;;;0.40;0.40;;;11.50;93.20;;;;;;5086009;28;20020;-79
2023/11/05 03:58:31;;;;;;;0.43;0.43;;;;;;;;;;5088980;28;20445;-78
2023/11/05 04:00:58;;;;;;;0.95;0.40;;;;;;;;;;5072124;28;20012;-79
2023/11/05 04:03:24;;;;;;;0.63;0.47;;;;;;;;;;5069314;28;20032;-79
2023/11/05 04:05:50;;;;;;;0.30;0.30;;;11.60;74.10;;;;;;5069588;28;20025;-80
2023/11/05 04:08:16;;;;;;;0.30;0.30;;;11.60;93.00;;;;;;5068788;28;20074;-78
2023/11/05 04:10:42;;;;;;;0.30;0.30;;;;;;;;;;5069480;28;20255;-78
2023/11/05 04:13:08;;;;;;;1.65;0.50;;;11.60;88.40;;;;;;5068948;28;20584;-78
2023/11/05 04:15:33;;;;;;;0.30;0.30;;;11.60;92.80;;;;;;5069650;28;20099;-80
2023/11/05 04:17:59;;;;;;;0.30;0.30;;;11.70;92.80;;;;;;5069354;28;20047;-78
2023/11/05 04:20:24;;;;;;;0.40;0.40;;;11.70;73.70;;;;;;5101619;28;20550;-79
2023/11/05 04:22:51;;;;;;;0.30;0.30;;;;;;;;;;5067516;28;20054;-79
2023/11/05 04:25:16;;;;;;;0.65;0.60;;;11.60;92.60;;;;;;5069645;28;20032;-79
2023/11/05 04:27:42;;;;;;;0.47;0.47;;;11.70;92.90;;;;;;5077977;28;20032;-79
2023/11/05 04:30:09;;;;;;;0.73;0.50;;;11.70;92.70;;;;;;5088109;28;20020;-80
2023/11/05 04:32:34;;;;;;;1.17;0.63;;;11.70;92.60;;;;;;5088458;28;20446;-79
2023/11/05 04:35:00;;;;;;;0.30;0.30;;;11.90;92.70;;;;;;5087259;28;20039;-78
2023/11/05 04:37:26;;;;;;;0.30;0.30;;;11.70;74.20;;;;;;5087507;28;20024;-78
2023/11/05 04:39:51;;;;;;;0.47;0.47;;;11.60;92.60;;;;;;5085956;28;20374;-78
2023/11/05 04:42:17;;;;;;;1.27;0.40;;;12.10;74.40;;;;;;5087646;28;20106;-79
2023/11/05 04:44:43;;;;;;;0.35;0.35;;;11.80;74.30;;;;;;5086494;28;20140;-78
2023/11/05 04:47:08;;;;;;;0.40;0.40;;;11.70;74.10;;;;;;5086367;28;20388;-78
2023/11/05 04:49:34;;;;;;;0.55;0.38;;;11.80;92.60;;;;;;5086406;28;20040;-78
2023/11/05 04:51:59;;;;;;;0.30;0.30;;;11.50;92.50;;;;;;5087244;28;20024;-79
2023/11/05 04:54:25;;;;;;;0.32;0.32;;;;;;;;;;5087313;28;20416;-79
2023/11/05 04:56:51;;;;;;;0.43;0.40;;;11.70;73.50;;;;;;5087441;28;20024;-78
2023/11/05 04:59:16;;;;;;;1.00;0.47;;;11.70;74.00;;;;;;5087379;28;20025;-78
2023/11/05 05:01:43;;;;;;;2.28;0.50;;;12.10;74.20;;;;;;5088911;28;20424;-78
2023/11/05 05:04:10;;;;;;;0.40;0.40;;;;;;;;;;5087944;28;21073;-80
2023/11/05 05:06:35;;;;;;;0.40;0.40;;;11.60;92.40;;;;;;5088421;28;20051;-77
2023/11/05 05:09:02;;;;;;;0.30;0.30;;;11.80;73.60;;;;;;5087106;28;20066;-78
2023/11/05 05:11:28;;;;;;;0.30;0.30;;;11.70;92.40;;;;;;5090336;28;20020;-78
2023/11/05 05:13:53;;;;;;;0.30;0.30;;;11.80;73.40;;;;;;5091358;28;20040;-78
2023/11/05 05:16:19;;;;;;;0.30;0.30;;;;;;;;;;5091729;28;20028;-78
2023/11/05 05:18:46;;;;;;;0.63;0.63;;;11.70;92.00;;;;;;5075615;28;20055;-78
2023/11/05 05:21:13;;;;;;;0.30;0.30;;;12.00;72.00;;;;;;5081378;28;20040;-79
2023/11/05 05:23:38;;;;;;;0.40;0.40;;;11.90;91.60;;;;;;5091826;28;20040;-80
2023/11/05 05:26:04;;;;;;;5.60;0.30;;;;;;;;;;5083872;28;20021;-79
2023/11/05 05:28:30;;;;;;;0.30;0.30;;;12.10;71.20;;;;;;5087549;28;20032;-79
2023/11/05 05:30:56;;;;;;;0.30;0.30;;;11.90;91.60;;;;;;5090461;28;20392;-80
2023/11/05 05:33:22;;;;;;;0.30;0.30;;;;;;;;;;5089951;28;20488;-81
2023/11/05 05:35:49;;;;;;;0.50;0.50;;;;;;;;;;5091036;28;20022;-80
2023/11/05 05:38:15;;;;;;;0.30;0.30;;;11.90;91.30;;;;;;5090264;28;20032;-79
2023/11/05 05:40:41;;;;;;;0.30;0.30;;;;;;;;;;5091608;28;20423;-79
2023/11/05 05:43:07;;;;;;;0.35;0.35;;;11.90;91.70;;;;;;5090801;28;20124;-79
2023/11/05 05:45:33;;;;;;;0.30;0.30;;;;;;;;;;5087746;28;21798;-80
2023/11/05 05:47:59;;;;;;;1.00;0.50;;;;;;;;;;5088397;28;20024;-79
2023/11/05 05:50:24;;;;;;;0.30;0.30;;;11.90;91.60;;;;;;5090665;28;20106;-79
2023/11/05 05:52:50;;;;;;;0.63;0.63;;;12.00;71.70;;;;;;5090470;28;20162;-80
2023/11/05 05:55:15;;;;;;;0.30;0.30;;;12.20;91.20;;;;;;5090509;28;20055;-79
2023/11/05 05:57:42;;;;;;;0.30;0.30;;;12.20;70.70;;;;;;5090776;28;20141;-81
2023/11/05 06:00:09;;;;;;;0.32;0.32;;;12.10;71.30;;;;;;5084244;28;20024;-80
2023/11/05 06:02:35;;;;;;;0.30;0.30;;;12.10;91.90;;;;;;5090048;28;20531;-80
2023/11/05 06:05:02;;;;;;;0.57;0.40;;;12.10;92.00;;;;;;5091599;28;20040;-79
2023/11/05 06:07:31;;;;;;;0.85;0.55;;;;;;;;;;5089945;28;20167;-80
2023/11/05 06:09:58;;;;;;;0.30;0.30;;;12.00;72.20;;;;;;5090979;28;20570;-79
2023/11/05 06:12:24;;;;;;;0.55;0.38;;;11.80;92.60;;;;;;5089373;28;20021;-79
2023/11/05 06:14:50;;;;;;;1.65;0.50;;;11.80;93.20;;;;;;5091163;28;20032;-80
2023/11/05 06:17:16;;;;;;;0.50;0.50;;;;;;;;;;5090216;28;20028;-79
2023/11/05 06:19:42;;;;;;;0.32;0.32;;;11.50;76.90;;;;;;5090867;28;20024;-79
2023/11/05 06:22:08;;;;;;;0.40;0.40;;;11.80;94.40;;;;;;5090601;28;20150;-79
2023/11/05 06:24:33;;;;;;;1.15;0.85;;;11.70;95.10;;;;;;5081463;28;20467;-79
2023/11/05 06:26:59;;;;;;;1.23;0.40;;;11.80;95.40;;;;;;5072155;28;20017;-79
2023/11/05 06:29:25;;;;;;;0.40;0.40;;;11.40;96.20;;;;;;5070792;28;20029;-79
2023/11/05 06:31:51;;;;;;;0.85;0.40;;;11.50;81.50;;;;;;5086677;28;20526;-79
2023/11/05 06:34:16;;;;;;;0.50;0.50;;;11.30;97.10;;;;;;5090999;28;20404;-78
2023/11/05 06:36:59;;;;;;;0.77;0.50;;;11.60;84.50;;;;;;5088305;28;20020;-78
2023/11/05 06:39:24;;;;;;;0.50;0.50;;;11.20;99.90;;;;;;5090399;28;20119;-79
2023/11/05 06:41:50;;;;;;;0.73;0.50;;;10.90;99.90;;;;;;5089177;28;20515;-78
2023/11/05 06:44:16;;;;;;;0.95;0.82;;;11.20;99.90;;;;;;5089589;28;20051;-78
2023/11/05 06:46:42;;;;;;;1.55;0.50;;;;;;;;;;5087834;28;20388;-79
2023/11/05 06:49:08;;;;;;;1.38;0.70;;;;;;;;;;5089343;28;20492;-78
2023/11/05 06:51:33;;;;;;;1.38;0.45;;;10.50;99.90;;;;;;5087370;28;20110;-78
2023/11/05 06:53:59;;;;;;;0.30;0.30;;;10.70;99.90;;;;;;5075379;28;20048;-78
2023/11/05 06:56:24;;;;;;;0.40;0.40;;;10.60;99.90;;;;;;5083167;28;20672;-78
2023/11/05 06:58:50;;;;;;;3.63;1.27;;;10.30;99.90;;;;;;5084079;28;20031;-78
2023/11/05 07:01:18;;;;;;;1.80;0.77;;;10.30;99.90;;;;;;5084019;28;20020;-79
2023/11/05 07:03:44;;;;;;;2.78;2.30;;;;;;;;;;5083176;28;20518;-78
2023/11/05 07:06:12;;;;;;;11.32;3.30;;;10.70;99.90;;;;;;5078606;28;20102;-77
2023/11/05 07:08:38;;;;;;;2.60;1.98;;;10.60;99.90;;;;;;5082285;28;20465;-78
2023/11/05 07:11:06;;;;;;;0.70;0.70;;;10.90;99.90;;;;;;5085127;28;20039;-77
2023/11/05 07:13:32;;;;;;;;;;;10.60;99.90;;;;;;5076530;28;20060;-77
2023/11/05 07:15:57;;;;;;;2.83;1.38;;;10.50;99.90;;;;;;5066155;28;20407;-78
2023/11/05 07:18:23;;;;;;;2.40;1.52;;;10.60;99.90;;;;;;5082128;28;20028;-77
2023/11/05 07:20:48;;;;;;;2.17;1.45;;;10.50;99.90;;;;;;5065968;28;20059;-77
2023/11/05 07:23:14;;;;;;;2.50;1.40;;;10.70;99.90;;;;;;5076800;28;20035;-77
2023/11/05 07:25:40;;;;;;;2.17;1.83;;;10.80;99.90;;;;;;5080666;28;20020;-77
2023/11/05 07:28:06;;;;;;;1.58;1.30;;;;;;;;;;5064292;28;20033;-78
2023/11/05 07:30:32;;;;;;;4.95;1.67;;;10.60;99.80;;;;;;5062244;28;20027;-77
2023/11/05 07:32:58;;;;;;;2.25;0.93;;;10.70;99.50;;;;;;5062035;28;20127;-79
2023/11/05 07:35:26;;;;;;;0.90;0.90;;;;;;;;;;5059136;28;20029;-78
2023/11/05 07:37:52;;;;;;;0.60;0.60;;;11.00;99.90;;;;;;5057301;28;20032;-77
2023/11/05 07:40:18;;;;;;;1.88;0.98;;;11.00;99.90;;;;;;5069008;28;20427;-77
2023/11/05 07:42:44;;;;;;;1.20;1.10;;;;;;;;;;5065336;28;20028;-77
2023/11/05 07:45:10;;;;;;;1.30;1.00;;;11.30;98.90;;;;;;5066024;28;20017;-78
2023/11/05 07:47:39;;;;;;;1.40;1.30;;;13.60;99.90;;;;;;5057776;28;20159;-77
2023/11/05 07:50:10;;;;;;;0.95;0.93;;;13.40;95.90;;;;;;5066595;28;20036;-78
2023/11/05 07:52:38;;;;;;;0.70;0.70;;;13.30;90.70;;;;;;5066517;28;20032;-79
2023/11/05 07:55:05;;;;;;;0.82;0.70;;;12.60;99.80;;;;;;5100935;27;20021;-81
2023/11/05 07:57:33;;;;;;;1.13;0.80;;;;;;;;;;5063586;28;20028;-82
2023/11/05 07:59:59;;;;;;;1.02;0.80;;;;;;;;;;5059546;28;20501;-82
2023/11/05 08:02:26;;;;;;;0.73;0.73;;;;;;;;;;5061709;28;20033;-81
2023/11/05 08:04:52;;;;;;;0.88;0.88;;;;;;;;;;5063399;28;20032;-81
2023/11/05 08:07:17;;;;;;;2.30;0.77;;;11.80;95.50;;;;;;5068719;28;20104;-81
2023/11/05 08:09:43;;;;;;;0.80;0.80;;;;;;;;;;5068127;28;20024;-81
2023/11/05 08:12:09;;;;;;;1.70;1.13;;;11.70;96.80;;;;;;5070165;28;20086;-81
2023/11/05 08:14:35;;;;;;;0.65;0.65;;;11.60;99.90;;;;;;5060407;28;20037;-80
2023/11/05 08:17:01;;;;;;;2.45;1.00;;;;;;;;;;5064237;28;20032;-81
2023/11/05 08:19:27;;;;;;;3.15;1.10;;;;;;;;;;5076754;28;20083;-81
2023/11/05 08:21:53;;;;;;;3.33;1.45;;;;;;;;;;5064976;28;20037;-80
2023/11/05 08:24:19;;;;;;;2.10;0.90;;;;;;;;;;5078057;28;20024;-79
2023/11/05 08:26:47;;;;;;;0.60;0.60;;;;;;;;;;5073535;28;20085;-78
2023/11/05 08:29:14;;;;;;;1.02;0.70;;;;;;;;;;5087840;28;20049;-78
2023/11/05 08:31:40;;;;;;;1.10;0.95;;;13.20;98.30;;;;;;5085855;28;20028;-79
2023/11/05 08:34:05;;;;;;;0.90;0.80;;;13.40;89.50;;;;;;5082054;28;20048;-79
2023/11/05 08:36:31;;;;;;;7.43;3.03;;;;;;;;;;5059756;28;20036;-79
2023/11/05 08:38:57;;;;;;;3.00;1.48;;;;;;;;;;5069517;28;20154;-79
2023/11/05 08:41:23;;;;;;;1.52;1.10;;;13.10;88.50;;;;;;5060322;28;20103;-80
2023/11/05 08:43:49;;;;;;;0.70;0.70;;;13.20;89.40;;;;;;5071698;28;20041;-80
2023/11/05 08:46:15;;;;;;;1.05;0.82;;;13.70;95.10;;;;;;5077853;28;20023;-79
2023/11/05 08:48:41;;;;;;;0.90;0.90;;;;;;;;;;5078758;28;20025;-79
2023/11/05 08:51:07;;;;;;;0.60;0.60;;;14.00;81.60;;;;;;5078169;28;20500;-80
2023/11/05 08:53:32;;;;;;;0.65;0.65;;;16.40;74.90;;;;;;5080379;28;20044;-80
2023/11/05 08:55:58;;;;;;;2.15;0.63;;;16.20;68.90;;;;;;5080428;28;20027;-79
2023/11/05 08:58:24;;;;;;;1.10;1.10;;;15.60;68.40;;;;;;5082074;28;20028;-80
2023/11/05 09:00:55;;;;;;;1.85;1.80;;;16.30;70.10;;;;;;5071048;28;20025;-79
2023/11/05 09:03:24;;;;;;;0.50;0.50;;;21.60;61.80;;;;;;5082967;28;20527;-81
2023/11/05 09:05:50;;;;;;;0.50;0.50;;;21.30;50.20;;;;;;5078303;28;20024;-80
2023/11/05 09:08:16;;;;;;;1.58;0.60;;;21.30;50.50;;;;;;5064112;28;20032;-79
2023/11/05 09:10:42;;;;;;;0.43;0.43;;;20.30;51.40;;;;;;5074757;28;20029;-79
2023/11/05 09:13:07;;;;;;;0.50;0.50;;;21.00;54.40;;;;;;5085654;28;20042;-79
2023/11/05 09:15:35;;;;;;;2.28;0.85;;;;;;;;;;5072710;28;20400;-80
2023/11/05 09:18:00;;;;;;;;;;;16.30;58.20;;;;;;5073236;28;20060;-80
2023/11/05 09:20:26;;;;;;;0.50;0.50;;;16.20;78.20;;;;;;5072416;28;19956;-79
2023/11/05 09:22:52;;;;;;;0.50;0.50;;;16.00;58.90;;;;;;5072137;28;20078;-80
2023/11/05 09:25:18;;;;;;;0.65;0.65;;;16.10;58.00;;;;;;5072949;28;20066;-80
2023/11/05 09:27:44;;;;;;;0.50;0.50;;;16.00;58.00;;;;;;5071717;28;20029;-79
2023/11/05 09:30:14;;;;;;;0.73;0.70;;;15.40;78.70;;;;;;5074822;28;20038;-80
2023/11/05 09:32:43;;;;;;;0.65;0.65;;;15.30;79.50;;;;;;5091926;28;20038;-80
2023/11/05 09:35:13;;;;;;;0.40;0.40;;;14.80;60.00;;;;;;5088372;28;20668;-80
2023/11/05 09:37:43;;;;;;;1.95;0.50;;;14.50;82.10;;;;;;5071994;28;20024;-80
2023/11/05 09:40:12;;;;;;;3.90;0.60;;;14.30;82.50;;;;;;5077261;28;20085;-80
2023/11/05 09:42:45;;;;;;;0.90;0.60;;;14.30;62.30;;;;;;5092196;28;20488;-79
2023/11/05 09:45:11;;;;;;;0.50;0.50;;;14.50;61.70;;;;;;5088088;28;20511;-79
2023/11/05 09:47:40;;;;;;;0.70;0.70;;;14.50;62.20;;;;;;5091762;28;20558;-80
2023/11/05 09:50:09;;;;;;;0.52;0.52;;;15.20;81.50;;;;;;5092042;28;20401;-80
2023/11/05 09:52:43;;;;;;;0.70;0.70;;;15.00;61.40;;;;;;5090850;28;20035;-79
2023/11/05 09:55:09;;;;;;;1.85;0.63;;;15.10;80.70;;;;;;5091360;28;20261;-79
2023/11/05 09:57:36;;;;;;;0.60;0.60;;;;;;;;;;5090520;28;20016;-79
2023/11/05 10:00:03;;;;;;;1.85;0.93;;;15.20;60.00;;;;;;5091846;28;20036;-81
2023/11/05 10:02:55;;;;;;;0.60;0.60;;;16.00;59.70;;;;;;5091081;28;20083;-79
2023/11/05 10:05:22;;;;;;;0.95;0.80;;;16.40;56.90;;;;;;5088708;28;20024;-79
2023/11/05 10:07:51;;;;;;;1.02;0.70;;;17.70;54.30;;;;;;5090830;28;20016;-79
2023/11/05 10:10:17;;;;;;;0.70;0.70;;;;;;;;;;5091279;28;20032;-79
2023/11/05 10:12:43;;;;;;;2.75;0.68;;;20.80;47.10;;;;;;5090351;28;20028;-79
2023/11/05 10:15:09;;;;;;;0.57;0.57;;;20.30;49.10;;;;;;5069842;28;20043;-79
2023/11/05 10:17:35;;;;;;;0.65;0.60;;;18.20;70.30;;;;;;5081646;28;20497;-78
2023/11/05 10:20:01;;;;;;;0.60;0.60;;;17.70;71.90;;;;;;5057913;28;20025;-80
2023/11/05 10:22:27;;;;;;;0.68;0.68;;;17.00;73.50;;;;;;5075938;28;20024;-80
2023/11/05 10:24:53;;;;;;;1.50;0.70;;;;;;;;;;5074477;28;20414;-79
2023/11/05 10:27:30;;;;;;;1.00;0.70;;;15.90;76.00;;;;;;5073233;28;20067;-79
2023/11/05 10:29:57;;;;;;;3.47;0.90;;;15.80;76.50;;;;;;5082261;28;20108;-79
2023/11/05 10:32:27;;;;;;;1.33;0.90;;;16.30;77.20;;;;;;5066701;28;20483;-79
2023/11/05 10:34:55;;;;;;;0.85;0.60;;;16.20;57.20;;;;;;5075173;28;20033;-78
2023/11/05 10:37:21;;;;;;;1.15;0.70;;;16.10;57.10;;;;;;5072458;28;20559;-79
2023/11/05 10:39:47;;;;;;;1.67;0.75;;;;;;;;;;5069565;28;20035;-79
2023/11/05 10:42:14;;;;;;;1.33;1.15;;;16.70;55.00;;;;;;5076265;28;20055;-80
2023/11/05 10:44:45;;;;;;;1.02;0.90;;;16.50;55.70;;;;;;5064482;28;20048;-80
2023/11/05 10:47:11;;;;;;;0.70;0.70;;;16.40;56.80;;;;;;5065460;28;20112;-79
2023/11/05 10:49:39;;;;;;;1.27;0.70;;;16.30;56.50;;;;;;5068916;28;20084;-80
2023/11/05 10:52:08;;;;;;;;;;;16.20;56.40;;;;;;5083702;28;20032;-80
2023/11/05 10:54:34;;;;;;;0.70;0.70;;;16.20;57.50;;;;;;5082159;28;19912;-78
2023/11/05 10:57:00;;;;;;;0.40;0.40;;;;;;;;;;5089466;28;20028;-80
2023/11/05 10:59:38;;;;;;;0.43;0.43;;;15.70;57.80;;;;;;5087456;28;20038;-80
2023/11/05 11:02:07;;;;;;;0.63;0.63;;;15.70;59.30;;;;;;5086443;28;20016;-79
2023/11/05 11:04:33;;;;;;;0.75;0.75;;;15.90;58.30;;;;;;5078833;28;20016;-79
2023/11/05 11:06:59;;;;;;;4.13;0.70;;;;;;;;;;5072934;28;20024;-80
2023/11/05 11:09:29;;;;;;;0.50;0.50;;;16.50;57.40;;;;;;5080243;28;20126;-80
2023/11/05 11:11:55;;;;;;;0.60;0.60;;;;;;;;;;5075236;28;20036;-79
2023/11/05 11:14:24;;;;;;;1.20;0.65;;;16.60;57.20;;;;;;5077297;28;20189;-79
2023/11/05 11:16:50;;;;;;;1.33;0.77;;;16.30;58.60;;;;;;5085205;28;20090;-78
2023/11/05 11:19:18;;;;;;;0.60;0.60;;;16.40;58.60;;;;;;5087784;28;20031;-79
2023/11/05 11:21:50;;;;;;;0.70;0.70;;;16.40;59.10;;;;;;5081111;28;20150;-78
2023/11/05 11:24:40;;;;;;;0.70;0.70;;;16.80;77.60;;;;;;5078009;28;20135;-79
2023/11/05 11:27:07;;;;;;;0.82;0.82;;;16.40;77.40;;;;;;5073032;28;20024;-78
2023/11/05 11:29:34;;;;;;;1.48;0.80;;;16.00;58.20;;;;;;5080306;28;20054;-79
2023/11/05 11:32:01;;;;;;;0.93;0.68;;;;;;;;;;5063704;28;20021;-79
2023/11/05 11:34:27;;;;;;;0.60;0.60;;;15.20;59.50;;;;;;5061572;28;20127;-79
2023/11/05 11:37:01;;;;;;;0.60;0.60;;;15.00;59.50;;;;;;5081498;28;20165;-79
2023/11/05 11:39:27;;;;;;;0.65;0.65;;;14.50;63.40;;;;;;5073727;28;20040;-79
2023/11/05 11:41:54;;;;;;;0.60;0.60;;;;;;;;;;5069173;28;20492;-79
2023/11/05 11:44:20;;;;;;;0.68;0.68;;;14.60;63.90;;;;;;5081498;28;20286;-79
2023/11/05 11:46:47;;;;;;;0.75;0.75;;;14.60;83.50;;;;;;5081580;28;20024;-79
2023/11/05 11:49:13;;;;;;;0.50;0.50;;;14.80;82.70;;;;;;5065237;28;20029;-80
2023/11/05 11:51:39;;;;;;;0.60;0.60;;;;;;;;;;5067011;28;20070;-80
2023/11/05 11:54:05;;;;;;;0.70;0.70;;;15.40;82.70;;;;;;5073735;28;20063;-80
2023/11/05 11:56:31;;;;;;;0.88;0.88;;;15.00;83.80;;;;;;5084352;28;20614;-80
2023/11/05 11:59:04;;;;;;;1.05;0.55;;;14.90;62.30;;;;;;5069702;28;20071;-80
2023/11/05 12:01:30;;;;;;;0.73;0.70;;;;;;;;;;5057459;28;20036;-79
2023/11/05 12:03:57;;;;;;;0.90;0.63;;;14.50;85.00;;;;;;5073852;28;20040;-80
2023/11/05 12:06:23;;;;;;;0.60;0.60;;;;;;;;;;5070592;28;20501;-80
2023/11/05 12:08:49;;;;;;;0.70;0.70;;;;;;;;;;5072499;28;20024;-81
2023/11/05 12:11:16;;;;;;;0.68;0.68;;;14.00;65.80;;;;;;5073948;28;20020;-79
2023/11/05 12:13:42;;;;;;;0.68;0.68;;;14.00;66.40;;;;;;5072851;28;20079;-79
2023/11/05 12:16:10;;;;;;;2.85;1.00;;;13.70;87.10;;;;;;5073647;28;20511;-79
2023/11/05 12:18:36;;;;;;;1.10;1.00;;;14.20;88.00;;;;;;5066073;28;20033;-80
2023/11/05 12:21:02;;;;;;;1.13;1.13;;;;;;;;;;5076407;28;20492;-80
2023/11/05 12:23:29;;;;;;;1.00;1.00;;;15.50;65.00;;;;;;5074554;28;20623;-80
2023/11/05 12:25:59;;;;;;;1.13;1.13;;;16.70;62.20;;;;;;5072743;28;20032;-81
2023/11/05 12:28:27;;;;;;;1.13;1.00;;;17.50;61.00;;;;;;5064064;28;20033;-80
2023/11/05 12:30:54;;;;;;;0.57;0.57;;;17.70;59.80;;;;;;5069011;28;20021;-81
2023/11/05 12:33:23;;;;;;;1.98;1.42;;;17.90;58.20;;;;;;5068771;28;20041;-80
2023/11/05 12:35:50;;;;;;;0.77;0.77;;;18.00;57.70;;;;;;5068424;28;20113;-81
2023/11/05 12:38:16;;;;;;;1.00;1.00;;;18.10;56.30;;;;;;5081989;28;20153;-80
2023/11/05 12:40:42;;;;;;;1.05;0.80;;;17.80;55.20;;;;;;5078148;28;20039;-80
2023/11/05 12:43:08;;;;;;;0.85;0.85;;;17.70;55.50;;;;;;5088109;28;20588;-81
2023/11/05 12:45:34;;;;;;;0.85;0.70;;;17.80;54.00;;;;;;5088888;28;20016;-80
2023/11/05 12:47:59;;;;;;;0.68;0.68;;;18.00;55.30;;;;;;5072186;28;20027;-80
2023/11/05 12:50:25;;;;;;;0.60;0.60;;;18.10;54.30;;;;;;5068806;28;20039;-81
2023/11/05 12:52:51;;;;;;;0.50;0.50;;;18.20;54.80;;;;;;5069023;28;20404;-79
2023/11/05 12:55:16;;;;;;;1.83;1.73;;;17.80;53.80;;;;;;5068896;28;20544;-80
2023/11/05 12:57:46;;;;;;;1.00;0.90;;;17.70;54.60;;;;;;5068917;28;20032;-79
2023/11/05 13:00:13;;;;;;;0.60;0.60;;;17.80;54.30;;;;;;5069686;28;20032;-80
2023/11/05 13:02:39;;;;;;;0.88;0.50;;;17.90;53.20;;;;;;5069551;28;20463;-80
2023/11/05 13:05:06;;;;;;;0.68;0.68;;;17.60;69.80;;;;;;5069721;28;20547;-79
2023/11/05 13:07:34;;;;;;;2.22;0.80;;;17.70;51.70;;;;;;5070814;28;20121;-79
2023/11/05 13:10:00;;;;;;;1.67;1.02;;;;;;;;;;5069816;28;20504;-81